Airfield :
LOGIN :

Register | Disclaimer

   EN    FR    IT 

 










Legend :    VFR   Marginal VFR   IFR   Intensive IFR   Very Intensive IFR
Visi :
Ceiling :
>= 8 km
>= 3000ft
5 to 8 km
1000 to 3000 ft
1500m to 5 km
500 to 1000 ft
800 to 1500m
200 to 500 ft
< 800m
< 200 ft
Symbols :   Thunderstorms  Fog  Heavy snow  Heavy precipitations  Wind > 20 kt
SIGMETs :     Misc.  Thunderstorms  Icing  Turbulence  Mountain Waves  Volcanic Ashes






- Airport Elevation : 295 ft
- IATA code : ORN


DAOO - Es senia - Oran

CURRENT METAR :
  • 300100Z VRB01KT 8000 NSC 19/17 Q1013

EXPIRED METARs :
  • 300030Z VRB02KT 8000 NSC 19/17 Q1013
  • 300000Z 27003KT 230V300 CAVOK 20/15 Q1013
  • 292330Z 25004KT CAVOK 19/15 Q1014
  • 292300Z 29005KT 230V330 CAVOK 19/17 Q1014
  • 292230Z 34006KT CAVOK 20/18 Q1013
  • 292200Z 35005KT CAVOK 21/18 Q1014
  • 292130Z 36003KT CAVOK 21/16 Q1014
  • 292100Z 02003KT 340V050 CAVOK 22/16 Q1014
  • 292030Z 08003KT CAVOK 22/15 Q1014

TAF TAF DAOO
Valid from the 30 at 00:00 until the 31 at 00:00 UTC


292300Z 3000/3024 34006KT 8000 NSC
PROB30
TEMPO 3004/3008 1500 BR BKN015
BECMG 3008/3012 02014KT
PROB40
TEMPO 3012/3023 02015G25KT FEW023TCU



MET'MAP, your aeronautical weather chart ! - Copyright ORBIFLY December 2007 - Disclaimer

ORBIFLY MET'MAP TEAM :

Programming & Development : Alexandra Zaïnal
Original concept : Baudouin d'Aumeries
Technical & hardware support : Manuel Goepfert
Assistance : Marc-Olivier Méhu




SOURCES & CREDITS :

   NOAA